Time;durP1;ratioP1;P1;durP2;ratioP2;P2;SDS_P1;SDS_P2;PMS_P1;PMS_P2;Temp;Humidity;BMP_temperature;BMP_pressure;BME280_temperature;BME280_humidity;BME280_pressure;Samples;Min_cycle;Max_cycle;Signal;HPM_P1;HPM_P2
2023/10/18 00:00:06;;;;;;;11.45;10.30;;;;;;;8.84;100.00;62909.66;5014632;28;20446;-76
2023/10/18 00:02:35;;;;;;;11.80;9.95;;;;;;;8.80;100.00;62906.03;5005327;28;20242;-74
2023/10/18 00:05:05;;;;;;;11.73;10.63;;;;;;;8.72;100.00;62895.25;5005516;28;20294;-73
2023/10/18 00:07:34;;;;;;;11.23;10.13;;;;;;;8.69;100.00;62897.22;5012254;28;20194;-74
2023/10/18 00:10:03;;;;;;;11.00;9.90;;;;;;;8.74;100.00;62897.31;5021563;28;20285;-75
2023/10/18 00:12:33;;;;;;;12.98;10.40;;;;;;;8.81;100.00;62904.03;5024309;28;20210;-74
2023/10/18 00:15:01;;;;;;;12.75;10.60;;;;;;;8.77;100.00;62899.88;5025058;28;20451;-74
2023/10/18 00:17:28;;;;;;;11.77;10.68;;;;;;;8.67;100.00;62889.56;5022640;28;20269;-74
2023/10/18 00:19:57;;;;;;;11.93;9.90;;;;;;;8.66;100.00;62886.00;5018151;28;20219;-73
2023/10/18 00:22:24;;;;;;;11.30;9.82;;;;;;;8.62;100.00;62884.41;5024880;28;20238;-74
2023/10/18 00:24:51;;;;;;;11.57;10.38;;;;;;;8.45;100.00;62867.34;5024743;28;20258;-73
2023/10/18 00:27:18;;;;;;;11.38;10.20;;;;;;;8.50;100.00;62872.53;5023324;28;20226;-74
2023/10/18 00:29:45;;;;;;;11.15;10.00;;;;;;;8.46;100.00;62868.38;5009394;28;20230;-73
2023/10/18 00:32:12;;;;;;;11.82;10.73;;;;;;;8.45;100.00;62869.38;5022175;28;20216;-73
2023/10/18 00:34:39;;;;;;;12.23;10.63;;;;;;;8.36;100.00;62860.06;5024916;28;20305;-74
2023/10/18 00:37:08;;;;;;;11.10;10.00;;;;;;;8.44;100.00;62868.34;5008599;28;20203;-74
2023/10/18 00:39:35;;;;;;;12.13;10.88;;;;;;;8.38;100.00;62862.13;5022929;28;20245;-73
2023/10/18 00:42:24;;;;;;;11.65;10.52;;;;;;;8.50;100.00;62875.06;5024694;28;20198;-75
2023/10/18 00:44:51;;;;;;;10.60;9.60;;;;;;;8.54;100.00;62876.66;5022472;28;20294;-72
2023/10/18 00:47:19;;;;;;;14.38;10.43;;;;;;;8.43;100.00;62870.38;5024141;28;20206;-74
2023/10/18 00:49:47;;;;;;;11.60;10.35;;;;;;;8.44;100.00;62866.31;5016860;28;20219;-75
2023/10/18 00:52:16;;;;;;;11.40;10.27;;;;;;;8.48;100.00;62872.47;5004802;28;20205;-74
2023/10/18 00:54:45;;;;;;;12.32;10.90;;;;;;;8.52;100.00;62876.59;5009489;28;20227;-74
2023/10/18 00:57:12;;;;;;;18.08;11.32;;;;;;;8.48;100.00;62872.47;5021707;28;20203;-74
2023/10/18 00:59:40;;;;;;;14.23;11.07;;;;;;;8.47;100.00;62869.44;5024695;28;20444;-74
2023/10/18 01:02:11;;;;;;;12.68;11.23;;;;;;;8.54;100.00;62876.66;5023810;28;20222;-74
2023/10/18 01:04:40;;;;;;;14.23;12.13;;;;;;;8.51;100.00;62873.53;5004345;28;20219;-73
2023/10/18 01:07:11;;;;;;;16.80;11.65;;;;;;;8.45;100.00;62869.91;5004548;28;20399;-75
2023/10/18 01:09:44;;;;;;;16.50;12.85;;;;;;;8.43;100.00;62867.81;5018457;28;20226;-74
2023/10/18 01:12:11;;;;;;;16.90;11.98;;;;;;;8.53;100.00;62877.63;5016798;28;20236;-74
2023/10/18 01:14:38;;;;;;;16.10;11.98;;;;;;;8.63;100.00;62885.94;5009253;28;20601;-74
2023/10/18 01:17:07;;;;;;;14.65;11.90;;;;;;;8.60;100.00;62885.38;5024891;28;20425;-75
2023/10/18 01:19:34;;;;;;;17.08;12.70;;;;;;;8.60;100.00;62880.31;5017518;28;20218;-75
2023/10/18 01:22:02;;;;;;;16.77;13.32;;;;;;;8.55;100.00;62879.69;5009817;28;20278;-74
2023/10/18 01:24:34;;;;;;;16.27;13.23;;;;;;;8.53;100.00;62875.63;5004144;28;20223;-74
2023/10/18 01:27:02;;;;;;;12.63;11.15;;;;;;;8.52;100.00;62876.59;5004570;28;20238;-74
2023/10/18 01:29:29;;;;;;;17.83;13.05;;;;;;;8.54;100.00;62876.13;5008339;28;20280;-74
2023/10/18 01:31:57;;;;;;;15.45;12.07;;;;;;;8.67;100.00;62892.09;5022743;28;20213;-73
2023/10/18 01:34:25;;;;;;;17.55;13.25;;;;;;;8.71;100.00;62896.75;5024222;28;20340;-75
2023/10/18 01:36:56;;;;;;;18.33;12.13;;;;;;;8.70;100.00;62897.72;5023842;28;20253;-74
2023/10/18 01:39:28;;;;;;;14.38;11.85;;;;;;;8.66;100.00;62894.13;5022080;28;20199;-74
2023/10/18 01:41:58;;;;;;;19.00;13.30;;;;;;;8.71;100.00;62894.22;5024195;28;20201;-73
2023/10/18 01:44:33;;;;;;;15.43;12.10;;;;;;;8.70;100.00;62893.19;5024410;28;20226;-75
2023/10/18 01:47:06;;;;;;;17.90;13.18;;;;;;;8.66;100.00;62888.53;5023885;28;20236;-73
2023/10/18 01:49:38;;;;;;;16.75;13.25;;;;;;;8.76;100.00;62898.88;5016197;28;20229;-74
2023/10/18 01:52:06;;;;;;;17.52;12.90;;;;;;;8.75;100.00;62900.88;5023615;28;20205;-74
2023/10/18 01:54:34;;;;;;;18.08;14.07;;;;;;;8.77;100.00;62905.50;5024378;28;20219;-73
2023/10/18 01:57:03;;;;;;;17.92;13.43;;;;;;;8.89;100.00;62912.28;5020041;28;20210;-74
2023/10/18 01:59:34;;;;;;;18.40;12.95;;;;;;;8.93;100.00;62918.97;5022866;28;20301;-73
2023/10/18 02:02:06;;;;;;;16.00;13.07;;;;;;;8.98;100.00;62924.13;5017698;28;20366;-74
2023/10/18 02:04:36;;;;;;;16.27;12.27;;;;;;;8.99;100.00;62930.25;5007822;28;20413;-73
2023/10/18 02:07:07;;;;;;;14.10;12.02;;;;;;;9.06;100.00;62927.84;5017991;28;20246;-74
2023/10/18 02:09:44;;;;;;;16.52;12.23;;;;;;;9.07;100.00;62941.06;5026023;28;20246;-74
2023/10/18 02:12:12;;;;;;;18.35;12.80;;;;;;;9.00;100.00;62923.66;5017185;28;20274;-73
2023/10/18 02:14:40;;;;;;;16.38;12.43;;;;;;;9.06;100.00;62930.38;5007388;28;20274;-73
2023/10/18 02:17:09;;;;;;;15.43;12.38;;;;;;;9.03;100.00;62926.75;5026611;28;20270;-73
2023/10/18 02:19:37;;;;;;;18.60;12.32;;;;;;;9.07;100.00;62935.97;5026424;28;20444;-73
2023/10/18 02:22:07;;;;;;;14.73;11.93;;;;;;;9.13;100.00;62935.06;5027396;28;20445;-74
2023/10/18 02:24:34;;;;;;;16.05;11.45;;;;;;;9.04;100.00;62927.81;5025376;28;20226;-73
2023/10/18 02:27:02;;;;;;;15.95;12.13;;;;;;;9.09;100.00;62932.97;5027354;28;20301;-74
2023/10/18 02:29:34;;;;;;;15.82;12.27;;;;;;;9.06;100.00;62927.34;5026394;28;20254;-73
2023/10/18 02:32:04;;;;;;;17.85;11.90;;;;;;;9.01;100.00;62927.22;5027348;28;20241;-75
2023/10/18 02:34:33;;;;;;;16.63;11.70;;;;;;;9.00;100.00;62926.72;5024877;28;20238;-73
2023/10/18 02:37:04;;;;;;;12.77;10.60;;;;;;;8.93;100.00;62918.97;5026233;28;20198;-73
2023/10/18 02:39:33;;;;;;;12.93;10.15;;;;;;;8.97;100.00;62920.56;5025950;28;20219;-73
2023/10/18 02:42:00;;;;;;;14.57;10.82;;;;;;;8.96;100.00;62917.00;5025003;28;20199;-76
2023/10/18 02:44:29;;;;;;;12.68;10.05;;;;;;;8.89;100.00;62912.81;5007435;28;20551;-74
2023/10/18 02:47:10;;;;;;;12.23;10.10;;;;;;;8.69;100.00;62894.69;5014601;28;20236;-74
2023/10/18 02:49:37;;;;;;;11.38;9.70;;;;;;;8.78;100.00;62901.47;5026298;28;20272;-73
2023/10/18 02:52:06;;;;;;;11.65;9.65;;;;;;;8.72;100.00;62897.25;5024378;28;20294;-74
2023/10/18 02:54:35;;;;;;;10.70;9.50;;;;;;;8.72;100.00;62894.72;5027201;28;20281;-74
2023/10/18 02:57:04;;;;;;;13.20;9.93;;;;;;;8.69;100.00;62891.63;5023898;28;20195;-73
2023/10/18 02:59:32;;;;;;;11.52;9.70;;;;;;;8.66;100.00;62894.13;5025696;28;20219;-74
2023/10/18 03:02:01;;;;;;;9.40;8.50;;;;;;;8.64;100.00;62886.47;5024698;28;20226;-73
2023/10/18 03:04:29;;;;;;;10.02;8.85;;;;;;;8.47;100.00;62866.38;5026131;28;20219;-74
2023/10/18 03:06:56;;;;;;;10.00;8.68;;;;;;;8.44;100.00;62868.84;5016469;28;20301;-74
2023/10/18 03:09:38;;;;;;;9.70;8.35;;;;;;;8.50;100.00;62872.53;5022428;28;20215;-74
2023/10/18 03:12:13;;;;;;;9.05;7.88;;;;;;;8.46;100.00;62867.88;5006473;28;20434;-74
2023/10/18 03:14:41;;;;;;;10.98;8.20;;;;;;;8.33;100.00;62854.44;5018687;28;20233;-73
2023/10/18 03:17:18;;;;;;;8.40;7.07;;;;;;;8.35;100.00;62861.59;5026396;28;20205;-74
2023/10/18 03:19:49;;;;;;;9.23;7.40;;;;;;;8.34;100.00;62858.00;5008269;28;20549;-72
2023/10/18 03:22:19;;;;;;;8.02;7.20;;;;;;;8.34;100.00;62855.47;5012238;28;20233;-75
2023/10/18 03:24:47;;;;;;;8.07;6.78;;;;;;;8.38;100.00;62862.66;5016849;28;20222;-74
2023/10/18 03:27:15;;;;;;;8.55;7.57;;;;;;;8.44;100.00;62866.31;5023758;28;20230;-73
2023/10/18 03:29:45;;;;;;;7.40;6.53;;;;;;;8.35;100.00;62862.09;5007570;28;20220;-73
2023/10/18 03:32:19;;;;;;;7.13;6.00;;;;;;;8.27;100.00;62848.25;5022862;28;20434;-73
2023/10/18 03:34:46;;;;;;;7.43;6.30;;;;;;;8.26;100.00;62850.28;5026054;28;20295;-75
2023/10/18 03:37:20;;;;;;;8.10;7.22;;;;;;;8.25;100.00;62848.72;5019010;28;20499;-74
2023/10/18 03:39:49;;;;;;;8.45;7.57;;;;;;;8.20;100.00;62846.56;5025221;28;20226;-74
2023/10/18 03:42:30;;;;;;;9.02;7.95;;;;;;;8.13;100.00;62836.81;5022316;28;20195;-74
2023/10/18 03:44:59;;;;;;;13.07;8.55;;;;;;;8.13;100.00;62834.81;5015873;28;20570;-73
2023/10/18 03:47:36;;;;;;;10.55;8.13;;;;;;;8.14;100.00;62833.28;5022252;28;20234;-75
2023/10/18 03:50:08;;;;;;;10.52;7.88;;;;;;;8.24;100.00;62845.16;5010035;28;20256;-73
2023/10/18 03:52:35;;;;;;;10.50;7.80;;;;;;;8.11;100.00;62832.72;5016376;28;20203;-73
2023/10/18 03:55:06;;;;;;;9.35;8.40;;;;;;;8.18;100.00;62836.91;5008891;28;20224;-74
2023/10/18 03:57:39;;;;;;;10.88;9.07;;;;;;;8.17;100.00;62836.41;5016512;28;20200;-76
2023/10/18 04:00:37;;;;;;;10.52;8.57;;;;;;;8.17;100.00;62844.00;5005862;28;20528;-76
2023/10/18 04:03:20;;;;;;;9.77;8.15;;;;;;;8.19;100.00;62843.53;5019892;28;20242;-76
2023/10/18 04:05:49;;;;;;;8.50;7.60;;;;;;;8.27;100.00;62846.22;5024153;28;20232;-74
2023/10/18 04:08:17;;;;;;;9.82;8.10;;;;;;;8.29;100.00;62855.91;5022787;28;20195;-76
2023/10/18 04:10:46;;;;;;;7.63;6.75;;;;;;;8.32;100.00;62853.41;5015656;28;20222;-75
2023/10/18 04:13:14;;;;;;;7.78;6.97;;;;;;;8.36;100.00;62860.06;5018907;28;20260;-75
2023/10/18 04:15:45;;;;;;;7.57;6.55;;;;;;;8.28;100.00;62851.81;5024497;28;20215;-77
2023/10/18 04:18:22;;;;;;;7.13;6.45;;;;;;;8.33;100.00;62860.03;5024024;28;20208;-73
2023/10/18 04:20:52;;;;;;;7.60;6.90;;;;;;;8.34;100.00;62855.47;5013898;28;20282;-74
2023/10/18 04:23:25;;;;;;;7.38;6.40;;;;;;;8.26;100.00;62847.72;5015714;28;20195;-75
2023/10/18 04:25:59;;;;;;;6.72;6.05;;;;;;;8.29;100.00;62850.81;5023116;28;20219;-74
2023/10/18 04:28:28;;;;;;;6.55;5.95;;;;;;;8.27;100.00;62853.84;5024454;28;20265;-75
2023/10/18 04:30:59;;;;;;;8.18;5.70;;;;;;;8.23;100.00;62847.16;5016145;28;20416;-75
2023/10/18 04:33:34;;;;;;;6.25;5.63;;;;;;;8.26;100.00;62850.28;5005858;28;20206;-76
2023/10/18 04:36:11;;;;;;;6.85;5.70;;;;;;;8.33;100.00;62857.50;5008432;28;20234;-75
2023/10/18 04:38:42;;;;;;;6.07;5.47;;;;;;;8.27;100.00;62853.31;5013354;28;20211;-74
2023/10/18 04:41:10;;;;;;;6.28;5.68;;;;;;;8.25;100.00;62846.19;5018380;28;20214;-74
2023/10/18 04:43:37;;;;;;;5.85;5.32;;;;;;;8.26;100.00;62847.72;5019778;28;20205;-75
2023/10/18 04:46:14;;;;;;;5.35;4.95;;;;;;;8.29;100.00;62848.28;5018203;28;20242;-75
2023/10/18 04:51:33;;;;;;;5.57;5.07;;;;;;;8.37;100.00;62858.59;4988026;28;20299;-74
2023/10/18 04:54:01;;;;;;;5.43;4.95;;;;;;;8.36;100.00;62858.06;5017655;28;20227;-74
2023/10/18 04:56:32;;;;;;;6.10;4.80;;;;;;;8.36;100.00;62858.06;5015235;28;20219;-74
2023/10/18 04:58:59;;;;;;;7.32;6.57;;;;;;;8.34;100.00;62853.44;5016523;28;20456;-74
2023/10/18 05:01:34;;;;;;;6.80;6.13;;;;;;;8.40;100.00;62859.66;5005427;28;20219;-75
2023/10/18 05:04:18;;;;;;;6.50;5.90;;;;;;;8.42;100.00;62864.25;5006525;28;20199;-74
2023/10/18 05:06:52;;;;;;;7.47;6.78;;;;;;;8.45;100.00;62869.91;5015692;28;20526;-76
2023/10/18 05:09:29;;;;;;;6.53;5.90;;;;;;;8.43;100.00;62864.78;5025314;28;20387;-74
2023/10/18 05:11:57;;;;;;;8.02;6.55;;;;;;;8.52;100.00;62876.59;5024728;28;20205;-74
2023/10/18 05:14:40;;;;;;;6.80;6.18;;;;;;;8.60;100.00;62882.84;5024862;28;20199;-74
2023/10/18 05:17:13;;;;;;;7.63;6.93;;;;;;;8.64;100.00;62886.47;5024571;28;20420;-73
2023/10/18 05:19:42;;;;;;;7.38;6.65;;;;;;;8.65;100.00;62888.00;5024359;28;20265;-74
2023/10/18 05:22:16;;;;;;;9.65;7.80;;;;;;;8.72;100.00;62895.25;5023471;28;20202;-73
2023/10/18 05:24:44;;;;;;;7.80;7.00;;;;;;;8.78;100.00;62900.94;5024254;28;20229;-74
2023/10/18 05:27:24;;;;;;;9.18;7.70;;;;;;;8.76;100.00;62901.94;5024976;28;20230;-74
2023/10/18 05:29:57;;;;;;;7.65;6.82;;;;;;;8.78;100.00;62901.47;5025225;28;20219;-74
2023/10/18 05:32:47;;;;;;;11.13;8.32;;;;;;;8.82;100.00;62903.03;5024076;28;20207;-74
2023/10/18 05:35:26;;;;;;;9.20;8.05;;;;;;;8.89;100.00;62907.75;5028392;28;20230;-74
2023/10/18 05:38:18;;;;;;;11.02;9.05;;;;;;;9.04;100.00;62930.34;5028792;28;20285;-75
2023/10/18 05:40:55;;;;;;;11.20;8.55;;;;;;;9.29;100.00;62958.72;5029151;28;20226;-73
2023/10/18 05:43:35;;;;;;;9.07;8.18;;;;;;;9.25;100.00;62955.09;5027964;28;20546;-74
2023/10/18 05:46:07;;;;;;;10.95;9.23;;;;;;;9.31;100.00;62953.16;5026375;28;20228;-74
2023/10/18 05:48:40;;;;;;;8.70;7.90;;;;;;;9.32;100.00;62959.81;5028768;28;20203;-77
2023/10/18 05:51:26;;;;;;;10.18;8.88;;;;;;;9.12;100.00;62936.59;5028235;28;20523;-76
2023/10/18 05:53:57;;;;;;;49.47;17.15;;;;;;;9.33;100.00;62957.78;5028720;28;20186;-74
2023/10/18 05:56:29;;;;;;;11.02;8.23;;;;;;;9.56;100.00;62981.03;5025767;28;20242;-76
2023/10/18 06:01:38;;;;;;;8.98;7.80;;;;;;;9.43;100.00;62970.66;5026769;28;20206;-74
2023/10/18 06:04:05;;;;;;;11.30;9.20;;;;;;;9.60;100.00;62990.25;5027827;28;20203;-75
2023/10/18 06:06:37;;;;;;;10.77;9.68;;;;;;;9.63;100.00;62991.34;5027661;28;20230;-72
2023/10/18 06:09:09;;;;;;;11.68;9.05;;;;;;;9.57;100.00;62979.53;5027542;28;20211;-73
2023/10/18 06:11:37;;;;;;;11.63;9.07;;;;;;;9.68;100.00;62996.50;5028954;28;20193;-74
2023/10/18 06:14:08;;;;;;;12.48;10.18;;;;;;;9.88;100.00;63014.13;5028270;28;20519;-74
2023/10/18 06:16:35;;;;;;;11.60;10.02;;;;;;;10.01;100.00;63028.09;5026973;28;20298;-74
2023/10/18 06:19:06;;;;;;;12.63;10.10;;;;;;;10.07;100.00;63034.31;5027775;28;20195;-74
2023/10/18 06:21:38;;;;;;;18.08;10.60;;;;;;;10.27;100.00;63051.94;5027975;28;20230;-73
2023/10/18 06:24:09;;;;;;;17.65;10.10;;;;;;;10.36;100.00;63064.34;5022813;28;20419;-75
2023/10/18 06:26:38;;;;;;;14.93;10.05;;;;;;;10.50;100.00;63078.31;5027409;28;20276;-73
2023/10/18 06:29:09;;;;;;;12.85;8.13;;;;;;;10.63;100.00;63094.28;5028060;28;20221;-73
2023/10/18 06:31:43;;;;;;;8.05;7.25;;;;;;;10.68;100.00;63096.41;5027797;28;20603;-75
2023/10/18 06:34:15;;;;;;;8.95;8.05;;;;;;;10.81;100.00;63112.94;5020250;28;20195;-74
2023/10/18 06:36:44;;;;;;;8.98;8.07;;;;;;;10.92;100.00;63121.25;5010424;28;20233;-74
2023/10/18 06:39:24;;;;;;;9.07;8.18;;;;;;;11.03;100.00;63130.09;5027250;28;20194;-74
2023/10/18 06:41:55;;;;;;;9.77;8.77;;;;;;;11.10;100.00;63139.88;5028103;28;20210;-74
2023/10/18 06:44:27;;;;;;;11.93;9.05;;;;;;;11.19;100.00;63149.22;5026904;28;20273;-73
2023/10/18 06:46:54;;;;;;;8.77;7.82;;;;;;;11.26;100.00;63157.00;5027599;28;20226;-76
2023/10/18 06:49:21;;;;;;;10.93;8.07;;;;;;;11.07;100.00;63139.84;5027856;28;20272;-74
2023/10/18 06:51:50;;;;;;;8.73;7.82;;;;;;;11.05;100.00;63137.78;5027349;28;20233;-73
2023/10/18 06:54:30;;;;;;;7.88;7.18;;;;;;;11.04;100.00;63133.69;5027377;28;20215;-73
2023/10/18 06:56:57;;;;;;;7.53;6.82;;;;;;;11.07;100.00;63134.75;5027039;28;20253;-74
2023/10/18 06:59:28;;;;;;;6.72;6.13;;;;;;;11.21;100.00;63153.84;5028641;28;20257;-74
2023/10/18 07:01:58;;;;;;;6.63;6.03;;;;;;;11.26;100.00;63157.00;5025687;28;20199;-74
2023/10/18 07:04:29;;;;;;;7.78;6.95;;;;;;;11.35;100.00;63168.84;5026808;28;20183;-72
2023/10/18 07:06:57;;;;;;;7.50;6.80;;;;;;;11.46;100.00;63182.78;5026782;28;20321;-75
2023/10/18 07:09:31;;;;;;;7.30;6.43;;;;;;;11.45;100.00;63178.69;5026830;28;20199;-74
2023/10/18 07:12:03;;;;;;;8.05;6.63;;;;;;;11.63;100.00;63195.31;5025726;28;20202;-74
2023/10/18 07:14:31;;;;;;;6.60;6.03;;;;;;;11.46;100.00;63179.72;5027304;28;20246;-73
2023/10/18 07:17:00;;;;;;;7.43;6.35;;;;;;;11.29;100.00;63162.63;5026534;28;20216;-74
2023/10/18 07:19:29;;;;;;;8.27;6.70;;;;;;;11.50;100.00;63184.38;5026539;28;20226;-75
2023/10/18 07:21:58;;;;;;;8.32;6.72;;;;;;;11.58;100.00;63187.03;5025826;28;20273;-75
2023/10/18 07:24:32;;;;;;;7.32;6.72;;;;;;;11.53;100.00;63190.03;5025823;28;20261;-75
2023/10/18 07:27:03;;;;;;;8.32;7.07;;;;;;;11.24;100.00;63151.84;5026484;28;20406;-73
2023/10/18 07:29:31;;;;;;;7.20;6.22;;;;;;;11.51;100.00;63182.88;5025005;28;20222;-74
2023/10/18 07:32:06;;;;;;;6.47;5.88;;;;;;;11.46;100.00;63180.25;5026400;28;20233;-72
2023/10/18 07:34:36;;;;;;;7.30;6.63;;;;;;;11.72;100.00;63203.63;5026482;28;20220;-73
2023/10/18 07:37:17;;;;;;;7.63;6.93;;;;;;;11.89;100.00;63223.78;5025794;28;20249;-73
2023/10/18 07:39:44;;;;;;;6.90;6.30;;;;;;;12.00;100.00;63235.16;5025442;28;20226;-74
2023/10/18 07:42:12;;;;;;;8.57;7.03;;;;;;;12.25;100.00;63264.16;5026371;28;20222;-74
2023/10/18 07:44:43;;;;;;;7.82;7.13;;;;;;;12.32;100.00;63265.78;5026480;28;20226;-76
2023/10/18 07:47:17;;;;;;;7.97;6.57;;;;;;;12.31;100.00;63265.28;5024812;28;20237;-74
2023/10/18 07:49:45;;;;;;;7.82;7.07;;;;;;;12.47;100.00;63281.88;5026526;28;20228;-74
2023/10/18 07:52:14;;;;;;;7.80;7.10;;;;;;;12.51;100.00;63288.56;5026082;28;20199;-73
2023/10/18 07:54:41;;;;;;;8.10;7.32;;;;;;;12.37;100.00;63268.94;5025123;28;20590;-74
2023/10/18 07:57:15;;;;;;;8.75;7.22;;;;;;;12.43;100.00;63280.25;5024395;28;20213;-73
2023/10/18 07:59:47;;;;;;;7.60;6.90;;;;;;;12.45;100.00;63279.25;5023985;28;20231;-74
2023/10/18 08:02:19;;;;;;;7.70;6.93;;;;;;;12.36;100.00;63275.03;5025536;28;20207;-74
2023/10/18 08:04:47;;;;;;;8.55;7.15;;;;;;;12.52;100.00;63289.59;5025033;28;20222;-74
2023/10/18 08:07:19;;;;;;;9.35;7.35;;;;;;;12.53;100.00;63290.09;5022550;28;20238;-74
2023/10/18 08:09:48;;;;;;;8.48;6.70;;;;;;;12.61;100.00;63296.38;5024073;28;20527;-74
2023/10/18 08:12:30;;;;;;;10.13;6.82;;;;;;;12.72;100.00;63315.44;5025176;28;20211;-74
2023/10/18 08:15:00;;;;;;;7.72;7.03;;;;;;;12.78;100.00;63319.13;5022995;28;20222;-74
2023/10/18 08:17:40;;;;;;;7.47;6.57;;;;;;;12.75;100.00;63315.50;5025264;28;20237;-75
2023/10/18 08:20:40;;;;;;;7.30;6.05;;;;;;;12.78;100.00;63316.03;5025386;28;20230;-73
2023/10/18 08:23:34;;;;;;;6.53;5.93;;;;;;;12.90;100.00;63325.41;5022651;28;20207;-74
2023/10/18 08:26:04;;;;;;;10.00;6.03;;;;;;;12.93;100.00;63328.50;5025394;28;20218;-73
2023/10/18 08:28:38;;;;;;;8.40;5.75;;;;;;;12.95;100.00;63331.13;5025124;28;20230;-73
2023/10/18 08:31:17;;;;;;;6.60;5.90;;;;;;;13.12;100.00;63348.75;5024857;28;20237;-73
2023/10/18 08:33:44;;;;;;;6.32;5.72;;;;;;;12.71;100.00;63314.41;5025029;28;20355;-74
2023/10/18 08:36:13;;;;;;;5.35;4.95;;;;;;;12.76;100.00;63313.97;5024991;28;20473;-74
2023/10/18 08:38:42;;;;;;;6.30;5.70;;;;;;;12.49;100.00;63281.38;5025318;28;20202;-73
2023/10/18 08:41:15;;;;;;;7.82;5.40;;;;;;;12.67;100.00;63302.59;5024906;28;20264;-74
2023/10/18 08:43:58;;;;;;;5.70;5.30;;;;;;;12.67;100.00;63305.16;5024733;28;20195;-75
2023/10/18 08:46:26;;;;;;;5.78;5.32;;;;;;;12.35;100.00;63271.47;5025020;28;20224;-73
2023/10/18 08:48:56;;;;;;;6.80;6.20;;;;;;;12.34;100.00;63268.38;5024893;28;20241;-72
2023/10/18 08:51:27;;;;;;;6.75;6.18;;;;;;;12.60;100.00;63299.91;5025026;28;20531;-74
2023/10/18 08:54:00;;;;;;;8.27;5.72;;;;;;;12.31;100.00;63269.84;5024756;28;20210;-74
2023/10/18 08:56:32;;;;;;;7.30;6.60;;;;;;;12.14;100.00;63252.75;5025334;28;20218;-72
2023/10/18 08:59:06;;;;;;;6.88;6.28;;;;;;;12.39;100.00;63276.13;5024752;28;20203;-74
2023/10/18 09:01:34;;;;;;;7.53;6.53;;;;;;;12.69;100.00;63301.59;5025918;28;20199;-75
2023/10/18 09:04:01;;;;;;;6.60;6.00;;;;;;;12.47;100.00;63283.91;5024640;28;20522;-73
2023/10/18 09:06:32;;;;;;;6.68;6.18;;;;;;;12.25;100.00;63258.53;5025110;28;20222;-74
2023/10/18 09:09:07;;;;;;;6.95;6.15;;;;;;;12.18;100.00;63256.38;5026891;28;20282;-75
2023/10/18 09:11:37;;;;;;;8.07;6.60;;;;;;;12.53;100.00;63287.56;5029111;28;20225;-75
2023/10/18 09:14:07;;;;;;;10.05;6.43;;;;;;;12.81;100.00;63314.03;5029121;28;20223;-74
2023/10/18 09:16:38;;;;;;;7.57;6.55;;;;;;;12.92;100.00;63330.03;5029631;28;20194;-74
2023/10/18 09:19:07;;;;;;;7.10;6.50;;;;;;;12.49;100.00;63281.38;5027910;28;20206;-75
2023/10/18 09:21:42;;;;;;;7.70;5.85;;;;;;;12.52;100.00;63287.03;5027172;28;20237;-74
2023/10/18 09:24:12;;;;;;;7.35;6.47;;;;;;;12.55;100.00;63287.59;5029348;28;20236;-73
2023/10/18 09:26:43;;;;;;;8.45;6.25;;;;;;;12.86;100.00;63319.22;5029690;28;20529;-74
2023/10/18 09:29:11;;;;;;;6.82;6.13;;;;;;;13.03;100.00;63341.97;5028030;28;20482;-74
2023/10/18 09:31:52;;;;;;;6.63;6.03;;;;;;;13.23;100.00;63357.09;5028369;28;20274;-75
2023/10/18 09:34:23;;;;;;;6.97;6.20;;;;;;;13.07;100.00;63343.56;5028448;28;20487;-74
2023/10/18 09:36:55;;;;;;;7.15;6.15;;;;;;;12.89;100.00;63329.50;5029462;28;20217;-73
2023/10/18 09:39:37;;;;;;;7.07;6.47;;;;;;;12.85;100.00;63320.22;5029121;28;20206;-74
2023/10/18 09:42:04;;;;;;;6.95;6.28;;;;;;;13.05;100.00;63343.53;5028838;28;20187;-75
2023/10/18 09:44:31;;;;;;;7.30;6.60;;;;;;;13.21;100.00;63360.13;5028287;28;20229;-73
2023/10/18 09:47:00;;;;;;;6.80;6.10;;;;;;;13.39;100.00;63378.81;5028403;28;20205;-74
2023/10/18 12:32:19;;;;;;;7.20;6.60;;;;;;;12.38;100.00;63272.53;5233078;22;1448273;-74
2023/10/18 12:34:56;;;;;;;9.05;7.13;;;;;;;12.43;100.00;63280.25;5019679;28;20199;-74
2023/10/18 12:37:23;;;;;;;6.97;6.28;;;;;;;12.45;100.00;63281.81;5026491;28;20225;-73
2023/10/18 12:39:51;;;;;;;8.55;7.70;;;;;;;12.38;100.00;63275.09;5026301;28;20476;-73
2023/10/18 12:42:21;;;;;;;7.88;7.18;;;;;;;12.51;100.00;63285.50;5011004;28;20216;-72
2023/10/18 12:44:48;;;;;;;8.82;8.02;;;;;;;12.60;100.00;63303.00;5005953;28;20392;-73
2023/10/18 12:47:19;;;;;;;9.13;8.32;;;;;;;12.59;100.00;63296.88;5005928;28;20241;-73
2023/10/18 12:49:50;;;;;;;9.73;8.73;;;;;;;12.76;100.00;63313.97;5005931;28;20433;-74
2023/10/18 12:55:07;;;;;;;9.98;9.07;;;;;;;12.89;100.00;63329.50;5006494;28;20246;-72
2023/10/18 12:57:33;;;;;;;9.32;8.35;;;;;;;12.96;100.00;63331.63;4999487;28;20242;-73
2023/10/18 13:00:13;;;;;;;9.85;8.93;;;;;;;12.93;100.00;63331.59;5002046;28;20193;-73
2023/10/18 13:02:49;;;;;;;11.43;10.23;;;;;;;13.05;100.00;63340.97;5001592;28;20242;-73
2023/10/18 13:05:16;;;;;;;10.48;9.18;;;;;;;13.22;100.00;63361.19;4995128;28;20499;-74
2023/10/18 13:07:44;;;;;;;10.05;8.90;;;;;;;13.13;100.00;63354.41;5005287;28;20235;-74
2023/10/18 13:10:12;;;;;;;9.18;8.38;;;;;;;13.18;100.00;63357.03;5005914;28;20238;-75
2023/10/18 13:12:43;;;;;;;10.27;7.97;;;;;;;13.18;100.00;63357.03;5011251;28;20354;-75
2023/10/18 13:15:11;;;;;;;9.38;8.57;;;;;;;13.35;100.00;63374.66;5008417;28;20191;-74
2023/10/18 13:17:38;;;;;;;9.43;8.40;;;;;;;13.28;100.00;63365.38;5005474;28;20250;-74
2023/10/18 13:20:09;;;;;;;10.07;9.07;;;;;;;13.10;100.00;63346.19;5005270;28;20356;-76
2023/10/18 13:22:36;;;;;;;9.02;8.13;;;;;;;13.00;100.00;63338.84;5025890;28;20530;-75
2023/10/18 13:25:08;;;;;;;9.38;8.65;;;;;;;13.04;100.00;63342.50;5006407;28;20282;-74
2023/10/18 13:27:38;;;;;;;9.77;8.88;;;;;;;13.12;100.00;63351.31;5014277;28;20222;-73
2023/10/18 13:30:31;;;;;;;10.05;9.05;;;;;;;13.22;100.00;63356.56;5009729;28;20214;-72
2023/10/18 13:33:01;;;;;;;11.38;9.30;;;;;;;13.07;100.00;63346.13;4985979;28;20356;-73
2023/10/18 13:35:29;;;;;;;9.80;8.88;;;;;;;12.89;100.00;63326.94;4986436;28;20188;-74
2023/10/18 13:37:59;;;;;;;10.05;9.05;;;;;;;12.77;100.00;63309.88;4986049;28;20235;-74
2023/10/18 13:40:27;;;;;;;9.55;8.60;;;;;;;12.69;100.00;63307.22;4985900;28;20200;-73
2023/10/18 13:42:54;;;;;;;10.73;9.70;;;;;;;12.56;100.00;63293.72;5002849;28;20223;-73
2023/10/18 13:45:27;;;;;;;9.93;9.07;;;;;;;12.52;100.00;63289.59;5008655;28;20539;-75
2023/10/18 13:47:58;;;;;;;9.50;8.60;;;;;;;12.61;100.00;63293.31;5005598;28;20224;-73
2023/10/18 13:50:25;;;;;;;10.30;9.20;;;;;;;12.71;100.00;63309.31;5004934;28;20317;-74
2023/10/18 13:52:55;;;;;;;10.38;9.48;;;;;;;12.69;100.00;63306.69;5005815;28;20239;-74
2023/10/18 13:55:22;;;;;;;8.98;8.18;;;;;;;12.68;100.00;63303.13;5001317;28;20249;-74
2023/10/18 13:57:50;;;;;;;10.48;9.40;;;;;;;12.68;100.00;63311.28;5005339;28;20370;-75
2023/10/18 14:00:21;;;;;;;9.52;8.68;;;;;;;12.70;100.00;63305.69;5007151;28;20199;-74
2023/10/18 14:02:48;;;;;;;9.98;8.98;;;;;;;12.76;100.00;63317.03;5004120;28;20250;-74
2023/10/18 14:05:19;;;;;;;9.75;8.85;;;;;;;12.60;100.00;63292.78;5002339;28;20203;-75
2023/10/18 14:07:47;;;;;;;9.32;8.52;;;;;;;12.47;100.00;63281.34;5005413;28;20538;-73
2023/10/18 14:10:27;;;;;;;9.75;8.95;;;;;;;12.37;100.00;63274.03;5005518;28;20199;-74
2023/10/18 14:12:54;;;;;;;9.63;8.73;;;;;;;12.30;100.00;63266.78;5002538;28;20262;-74
2023/10/18 14:15:25;;;;;;;9.75;8.43;;;;;;;12.19;100.00;63254.88;5005820;28;20371;-74
2023/10/18 14:17:52;;;;;;;8.27;7.47;;;;;;;12.25;100.00;63258.53;5006735;28;20218;-74
2023/10/18 14:20:25;;;;;;;10.88;8.43;;;;;;;12.23;100.00;63259.53;5008874;28;20499;-74
2023/10/18 14:22:55;;;;;;;9.63;8.73;;;;;;;12.30;100.00;63266.78;5004267;28;20223;-74
2023/10/18 14:25:24;;;;;;;9.60;8.70;;;;;;;12.36;100.00;63275.03;5004784;28;20209;-73
2023/10/18 14:27:51;;;;;;;9.63;8.68;;;;;;;12.35;100.00;63271.97;5004661;28;20225;-73
2023/10/18 14:30:19;;;;;;;10.68;8.45;;;;;;;12.32;100.00;63271.41;5002297;28;20233;-73
2023/10/18 14:32:46;;;;;;;10.07;9.13;;;;;;;12.21;100.00;63259.50;5004560;28;20593;-74